createdAt,value
2022-12-12T00:00:30.362Z,-3.50
2022-12-12T00:03:19.825Z,-3.50
2022-12-12T00:06:09.589Z,-3.90
2022-12-12T00:09:00.605Z,-3.40
2022-12-12T00:11:49.942Z,-3.60
2022-12-12T00:14:39.471Z,-3.60
2022-12-12T00:17:28.811Z,-3.40
2022-12-12T00:20:18.249Z,-3.40
2022-12-12T00:23:07.509Z,-3.70
2022-12-12T00:26:01.313Z,-3.50
2022-12-12T00:28:51.384Z,-3.40
2022-12-12T00:31:41.842Z,-3.70
2022-12-12T00:34:31.117Z,-3.70
2022-12-12T00:37:20.542Z,-3.40
2022-12-12T00:40:11.904Z,-3.30
2022-12-12T00:43:02.728Z,-3.20
2022-12-12T00:45:52.341Z,-3.20
2022-12-12T00:48:41.565Z,-3.00
2022-12-12T00:51:31.879Z,-3.20
2022-12-12T00:54:21.123Z,-3.30
2022-12-12T00:57:10.677Z,-3.10
2022-12-12T01:00:01.611Z,-3.20
2022-12-12T01:02:51.122Z,-3.20
2022-12-12T01:05:41.470Z,-3.20
2022-12-12T01:08:31.035Z,-3.20
2022-12-12T01:11:20.945Z,-3.10
2022-12-12T01:14:10.125Z,-3.20
2022-12-12T01:17:00.986Z,-3.10
2022-12-12T01:19:50.297Z,-3.00
2022-12-12T01:22:39.524Z,-3.00
2022-12-12T01:25:29.143Z,-3.30
2022-12-12T01:28:18.395Z,-3.10
2022-12-12T01:31:08.158Z,-3.00
2022-12-12T01:33:59.006Z,-3.20
2022-12-12T01:36:48.509Z,-3.00
2022-12-12T01:39:37.795Z,-3.00
2022-12-12T01:42:27.274Z,-2.90
2022-12-12T01:45:53.396Z,-2.90
2022-12-12T01:48:47.274Z,-2.90
2022-12-12T01:51:40.451Z,-3.00
2022-12-12T01:54:33.065Z,-3.00
2022-12-12T01:57:28.076Z,-2.80
2022-12-12T02:00:18.279Z,-3.00
2022-12-12T02:03:07.883Z,-3.00
2022-12-12T02:06:00.323Z,-3.00
2022-12-12T02:08:53.295Z,-3.10
2022-12-12T02:12:06.135Z,-3.00
2022-12-12T02:14:56.144Z,-3.00
2022-12-12T02:18:08.648Z,-3.40
2022-12-12T02:21:12.796Z,-3.10
2022-12-12T02:24:51.364Z,-3.40
2022-12-12T02:28:01.927Z,-3.10
2022-12-12T02:31:09.940Z,-3.10
2022-12-12T02:34:05.770Z,-3.00
2022-12-12T02:37:03.606Z,-2.90
2022-12-12T02:40:03.307Z,-2.90
2022-12-12T02:42:59.050Z,-2.90
2022-12-12T02:45:52.098Z,-2.90
2022-12-12T02:48:49.468Z,-2.90
2022-12-12T02:51:39.847Z,-3.00
2022-12-12T02:54:30.273Z,-2.80
2022-12-12T02:57:22.287Z,-2.80
2022-12-12T03:00:14.295Z,-2.90
2022-12-12T03:03:47.378Z,-2.80
2022-12-12T03:07:08.751Z,-2.80
2022-12-12T03:10:06.359Z,-2.80
2022-12-12T03:13:01.339Z,-2.90
2022-12-12T03:15:59.329Z,-2.70
2022-12-12T03:19:00.113Z,-2.80
2022-12-12T03:21:57.077Z,-2.80
2022-12-12T03:24:52.074Z,-2.80
2022-12-12T03:27:47.063Z,-2.80
2022-12-12T03:30:42.460Z,-2.80
2022-12-12T03:33:37.982Z,-2.80
2022-12-12T03:36:30.840Z,-2.70
2022-12-12T03:39:26.422Z,-2.70
2022-12-12T03:42:21.368Z,-2.70
2022-12-12T03:45:15.945Z,-2.70
2022-12-12T03:48:10.651Z,-2.80
2022-12-12T03:51:04.967Z,-2.90
2022-12-12T03:54:00.044Z,-2.60
2022-12-12T03:56:57.924Z,-2.60
2022-12-12T03:59:51.671Z,-2.60
2022-12-12T04:02:44.787Z,-2.60
2022-12-12T04:06:01.628Z,-2.60
2022-12-12T04:09:08.759Z,-2.30
2022-12-12T04:12:29.468Z,-2.50
2022-12-12T04:15:48.672Z,-2.50
2022-12-12T04:18:45.245Z,-2.50
2022-12-12T04:21:57.052Z,-2.40
2022-12-12T04:24:50.112Z,-2.40
2022-12-12T04:27:44.950Z,-2.40
2022-12-12T04:30:36.702Z,-2.30
2022-12-12T04:33:29.712Z,-2.30
2022-12-12T04:36:22.629Z,-2.40
2022-12-12T04:39:14.585Z,-2.40
2022-12-12T04:42:05.510Z,-2.40
2022-12-12T04:45:03.189Z,-2.70
2022-12-12T04:47:55.298Z,-2.40
2022-12-12T04:50:49.038Z,-2.30
2022-12-12T04:53:45.808Z,-2.30
2022-12-12T04:56:37.673Z,-2.30
2022-12-12T04:59:27.719Z,-2.30
2022-12-12T05:02:26.451Z,-2.50
2022-12-12T05:05:20.766Z,-2.30
2022-12-12T05:08:16.736Z,-2.30
2022-12-12T05:11:08.406Z,-2.40
2022-12-12T05:13:58.039Z,-2.40
2022-12-12T05:16:51.686Z,-2.40
2022-12-12T05:19:42.632Z,-2.30
2022-12-12T05:22:32.089Z,-2.30
2022-12-12T05:25:22.286Z,-2.30
2022-12-12T05:28:12.440Z,-2.20
2022-12-12T05:31:01.772Z,-2.20
2022-12-12T05:33:51.715Z,-2.20
2022-12-12T05:36:42.550Z,-2.20
2022-12-12T05:39:32.016Z,-2.20
2022-12-12T05:42:21.496Z,-2.20
2022-12-12T05:45:12.922Z,-2.10
2022-12-12T05:48:02.554Z,-2.10
2022-12-12T05:50:51.941Z,-2.10
2022-12-12T05:53:43.362Z,-2.10
2022-12-12T05:56:32.817Z,-2.00
2022-12-12T05:59:22.353Z,-2.00
2022-12-12T06:02:11.871Z,-1.90
2022-12-12T06:05:01.680Z,-1.90
2022-12-12T06:07:51.204Z,-1.90
2022-12-12T06:10:42.545Z,-1.90
2022-12-12T06:13:32.118Z,-1.90
2022-12-12T06:16:22.007Z,-1.90
2022-12-12T06:19:11.493Z,-1.90
2022-12-12T06:22:01.058Z,-1.90
2022-12-12T06:24:50.515Z,-1.90
2022-12-12T06:27:41.277Z,-1.90
2022-12-12T06:30:30.775Z,-1.90
2022-12-12T06:33:20.377Z,-1.90
2022-12-12T06:36:13.216Z,-1.90
2022-12-12T06:39:03.224Z,-1.80
2022-12-12T06:41:52.664Z,-1.80
2022-12-12T06:44:43.796Z,-1.80
2022-12-12T06:47:33.241Z,-1.70
2022-12-12T06:50:23.965Z,-1.70
2022-12-12T06:53:13.912Z,-1.70
2022-12-12T06:56:09.041Z,-1.60
2022-12-12T06:59:01.481Z,-1.50
2022-12-12T07:01:52.545Z,-1.50
2022-12-12T07:04:42.578Z,-1.50
2022-12-12T07:07:32.721Z,-1.40
2022-12-12T07:10:22.158Z,-1.40
2022-12-12T07:13:11.920Z,-1.30
2022-12-12T07:16:01.832Z,-1.20
2022-12-12T07:18:52.762Z,-1.10
2022-12-12T07:21:42.281Z,-1.30
2022-12-12T07:24:31.835Z,-1.20
2022-12-12T07:27:21.876Z,-1.20
2022-12-12T07:30:12.832Z,-1.10
2022-12-12T07:33:02.395Z,-1.10
2022-12-12T07:35:53.614Z,-1.00
2022-12-12T07:38:43.754Z,-0.90
2022-12-12T07:41:33.253Z,-0.80
2022-12-12T07:44:22.787Z,-0.80
2022-12-12T07:47:12.706Z,-0.80
2022-12-12T07:50:02.292Z,-0.60
2022-12-12T07:52:53.373Z,-0.60
2022-12-12T07:55:43.061Z,-0.60
2022-12-12T07:58:32.612Z,-0.70
2022-12-12T08:01:24.187Z,-0.80
2022-12-12T08:04:13.787Z,-0.80
2022-12-12T08:07:08.293Z,-0.90
2022-12-12T08:09:59.746Z,-1.00
2022-12-12T08:12:49.605Z,-1.00
2022-12-12T08:15:39.215Z,-1.00
2022-12-12T08:18:28.666Z,-1.10
2022-12-12T08:21:25.131Z,-1.20
2022-12-12T08:24:17.026Z,-1.20
2022-12-12T08:27:12.253Z,-1.30
2022-12-12T08:30:05.296Z,-1.40
2022-12-12T08:32:54.556Z,-1.40
2022-12-12T08:35:43.967Z,-1.50
2022-12-12T08:38:33.485Z,-1.60
2022-12-12T08:41:23.257Z,-1.60
2022-12-12T08:44:14.813Z,-1.70
2022-12-12T08:47:04.368Z,-1.70
2022-12-12T08:49:53.977Z,-1.60
2022-12-12T08:52:43.427Z,-1.50
2022-12-12T08:55:33.017Z,-1.50
2022-12-12T08:58:22.714Z,-1.30
2022-12-12T09:01:14.462Z,-1.20
2022-12-12T09:04:03.997Z,-1.00
2022-12-12T09:06:53.939Z,-0.70
2022-12-12T09:09:43.376Z,-0.60
2022-12-12T09:12:38.268Z,-0.40
2022-12-12T09:15:30.945Z,-0.20
2022-12-12T09:18:22.533Z,0.10
2022-12-12T09:21:12.030Z,0.50
2022-12-12T09:24:02.305Z,0.50
2022-12-12T09:26:51.738Z,0.70
2022-12-12T09:29:41.498Z,0.80
2022-12-12T09:32:30.817Z,0.70
2022-12-12T09:35:21.744Z,0.60
2022-12-12T09:38:14.620Z,0.10
2022-12-12T09:41:12.609Z,0.00
2022-12-12T09:44:04.798Z,0.10
2022-12-12T09:46:57.678Z,0.20
2022-12-12T09:49:49.758Z,0.20
2022-12-12T09:52:41.552Z,0.30
2022-12-12T09:55:42.196Z,0.20
2022-12-12T09:58:40.839Z,0.50
2022-12-12T10:01:40.833Z,0.60
2022-12-12T10:04:39.261Z,0.60
2022-12-12T10:07:36.850Z,0.50
2022-12-12T10:10:32.999Z,0.50
2022-12-12T10:13:27.326Z,0.60
2022-12-12T10:16:17.481Z,0.50
2022-12-12T10:19:11.630Z,0.30
2022-12-12T10:22:15.166Z,0.40
2022-12-12T10:25:13.306Z,0.30
2022-12-12T10:28:12.065Z,0.30
2022-12-12T10:31:28.983Z,0.40
2022-12-12T10:34:32.391Z,0.50
2022-12-12T10:37:38.040Z,0.50
2022-12-12T10:40:38.679Z,0.40
2022-12-12T10:43:35.020Z,0.10
2022-12-12T10:46:29.999Z,0.20
2022-12-12T10:49:22.110Z,0.20
2022-12-12T10:52:19.763Z,0.30
2022-12-12T10:55:20.128Z,0.40
2022-12-12T10:58:09.600Z,0.30
2022-12-12T11:01:05.642Z,0.30
2022-12-12T11:03:57.610Z,0.40
2022-12-12T11:06:50.427Z,0.40
2022-12-12T11:09:46.337Z,0.50
2022-12-12T11:12:38.391Z,0.50
2022-12-12T11:15:39.041Z,0.40
2022-12-12T11:18:30.830Z,0.50
2022-12-12T11:21:22.475Z,0.50
2022-12-12T11:24:17.450Z,0.50
2022-12-12T11:27:09.025Z,0.50
2022-12-12T11:30:01.389Z,0.30
2022-12-12T11:32:54.851Z,0.30
2022-12-12T11:35:47.880Z,0.20
2022-12-12T11:38:42.014Z,0.30
2022-12-12T11:41:51.520Z,0.20
2022-12-12T11:44:41.498Z,0.30
2022-12-12T11:47:38.765Z,0.30
2022-12-12T11:50:30.562Z,0.30
2022-12-12T11:53:21.498Z,0.20
2022-12-12T11:56:33.899Z,0.20
2022-12-12T11:59:44.910Z,0.20
2022-12-12T12:03:20.092Z,0.30
2022-12-12T12:06:27.007Z,0.30
2022-12-12T12:09:27.993Z,0.20
2022-12-12T12:12:22.498Z,0.20
2022-12-12T12:15:35.642Z,0.30
2022-12-12T12:18:41.798Z,0.20
2022-12-12T12:21:39.627Z,0.10
2022-12-12T12:24:54.827Z,0.20
2022-12-12T12:27:54.279Z,0.20
2022-12-12T12:30:56.687Z,0.20
2022-12-12T12:33:58.622Z,0.20
2022-12-12T12:37:01.785Z,0.20
2022-12-12T12:40:04.092Z,0.30
2022-12-12T12:43:11.703Z,0.30
2022-12-12T12:46:11.945Z,0.30
2022-12-12T12:49:04.839Z,0.20
2022-12-12T12:51:58.459Z,0.20
2022-12-12T12:54:49.747Z,0.10
2022-12-12T12:57:44.460Z,0.30
2022-12-12T13:00:36.799Z,0.30
2022-12-12T13:03:34.050Z,0.20
2022-12-12T13:06:38.240Z,0.30
2022-12-12T13:09:35.819Z,0.30
2022-12-12T13:12:31.649Z,0.20
2022-12-12T13:15:27.674Z,0.20
2022-12-12T13:18:18.930Z,0.10
2022-12-12T13:21:14.222Z,0.00
2022-12-12T13:24:10.100Z,-0.10
2022-12-12T13:27:06.481Z,-0.10
2022-12-12T13:30:02.160Z,-0.20
2022-12-12T13:33:12.749Z,-0.10
2022-12-12T13:36:10.449Z,-0.20
2022-12-12T13:39:01.491Z,-0.20
2022-12-12T13:42:01.086Z,-0.20
2022-12-12T13:44:51.937Z,-0.10
2022-12-12T13:48:02.483Z,-0.20
2022-12-12T13:51:34.916Z,-0.20
2022-12-12T13:54:55.316Z,-0.30
2022-12-12T13:58:08.306Z,-0.20
2022-12-12T14:01:42.360Z,-0.30
2022-12-12T14:04:35.357Z,-0.30
2022-12-12T14:07:25.821Z,-0.30
2022-12-12T14:10:25.254Z,-0.30
2022-12-12T14:13:29.310Z,-0.50
2022-12-12T14:16:27.255Z,-0.40
2022-12-12T14:19:36.781Z,-0.50
2022-12-12T14:22:29.761Z,-0.50
2022-12-12T14:25:31.004Z,-0.60
2022-12-12T14:28:25.518Z,-0.70
2022-12-12T14:31:17.691Z,-0.90
2022-12-12T14:34:24.902Z,-1.00
2022-12-12T14:37:33.137Z,-1.00
2022-12-12T14:40:26.258Z,-0.90
2022-12-12T14:43:23.057Z,-0.80
2022-12-12T14:46:17.625Z,-0.70
2022-12-12T14:49:07.695Z,-0.60
2022-12-12T14:52:00.017Z,-0.60
2022-12-12T14:54:51.257Z,-0.50
2022-12-12T14:57:41.650Z,-0.50
2022-12-12T15:00:31.103Z,-0.50
2022-12-12T15:03:27.864Z,-0.50
2022-12-12T15:06:38.717Z,-0.40
2022-12-12T15:09:30.819Z,-0.40
2022-12-12T15:12:24.219Z,-0.40
2022-12-12T15:15:25.188Z,-0.40
2022-12-12T15:18:17.883Z,-0.40
2022-12-12T15:21:07.418Z,-0.40
2022-12-12T15:23:56.916Z,-0.30
2022-12-12T15:26:47.398Z,-0.30
2022-12-12T15:29:40.150Z,-0.30
2022-12-12T15:32:31.157Z,-0.30
2022-12-12T15:35:22.744Z,-0.20
2022-12-12T15:38:14.592Z,-0.20
2022-12-12T15:41:12.810Z,-0.20
2022-12-12T15:44:05.784Z,-0.10
2022-12-12T15:46:57.229Z,-0.20
2022-12-12T15:49:48.048Z,-0.10
2022-12-12T15:52:37.731Z,0.00
2022-12-12T15:55:27.297Z,0.00
2022-12-12T15:58:29.179Z,0.00
2022-12-12T16:01:21.980Z,0.00
2022-12-12T16:04:26.832Z,0.00
2022-12-12T16:07:22.041Z,0.00
2022-12-12T16:10:25.608Z,0.10
2022-12-12T16:13:27.228Z,0.10
2022-12-12T16:16:41.739Z,0.10
2022-12-12T16:19:42.303Z,0.00
2022-12-12T16:22:36.287Z,-0.10
2022-12-12T16:25:27.962Z,0.10
2022-12-12T16:28:25.618Z,0.10
2022-12-12T16:31:19.654Z,0.20
2022-12-12T16:34:09.122Z,0.30
2022-12-12T16:37:00.052Z,0.20
2022-12-12T16:39:49.511Z,0.20
2022-12-12T16:42:39.352Z,0.20
2022-12-12T16:45:28.801Z,0.20
2022-12-12T16:48:20.311Z,0.30
2022-12-12T16:51:11.192Z,0.20
2022-12-12T16:54:02.644Z,0.20
2022-12-12T16:56:53.112Z,0.10
2022-12-12T16:59:42.488Z,0.10
2022-12-12T17:02:33.079Z,0.10
2022-12-12T17:05:24.835Z,0.10
2022-12-12T17:08:15.699Z,0.10
2022-12-12T17:11:09.916Z,0.00
2022-12-12T17:14:00.395Z,-0.10
2022-12-12T17:16:50.234Z,-0.20
2022-12-12T17:19:40.041Z,-0.30
2022-12-12T17:22:30.117Z,-0.30
2022-12-12T17:25:21.791Z,-0.30
2022-12-12T17:28:16.519Z,-0.30
2022-12-12T17:31:10.424Z,-0.50
2022-12-12T17:33:59.988Z,-0.60
2022-12-12T17:36:49.917Z,-0.80
2022-12-12T17:39:40.049Z,-0.90
2022-12-12T17:42:32.605Z,-1.00
2022-12-12T17:45:24.145Z,-1.10
2022-12-12T17:48:14.133Z,-1.30
2022-12-12T17:51:06.498Z,-1.30
2022-12-12T17:53:58.375Z,-1.40
2022-12-12T17:56:48.388Z,-1.50
2022-12-12T17:59:38.095Z,-1.50
2022-12-12T18:02:29.653Z,-1.50
2022-12-12T18:05:22.221Z,-1.30
2022-12-12T18:08:13.032Z,-1.20
2022-12-12T18:11:03.538Z,-1.10
2022-12-12T18:13:54.290Z,-0.90
2022-12-12T18:16:46.193Z,-0.90
2022-12-12T18:19:37.126Z,-0.70
2022-12-12T18:22:27.283Z,-0.60
2022-12-12T18:25:16.977Z,-0.50
2022-12-12T18:28:07.245Z,-0.40
2022-12-12T18:30:57.443Z,-0.30
2022-12-12T18:33:58.110Z,-0.20
2022-12-12T18:36:51.043Z,-0.20
2022-12-12T18:39:44.329Z,0.00
2022-12-12T18:42:43.038Z,-0.10
2022-12-12T18:46:26.842Z,0.00
2022-12-12T18:49:33.127Z,0.00
2022-12-12T18:52:25.620Z,0.10
2022-12-12T18:55:19.256Z,0.20
2022-12-12T18:58:10.899Z,0.30
2022-12-12T19:01:11.844Z,0.30
2022-12-12T19:04:12.257Z,0.30
2022-12-12T19:07:06.580Z,0.30
2022-12-12T19:09:58.786Z,0.10
2022-12-12T19:12:50.004Z,0.00
2022-12-12T19:15:47.626Z,-0.10
2022-12-12T19:18:38.785Z,-0.10
2022-12-12T19:21:29.904Z,0.00
2022-12-12T19:24:21.463Z,0.10
2022-12-12T19:27:13.789Z,0.20
2022-12-12T19:30:04.851Z,0.20
2022-12-12T19:32:57.171Z,0.20
2022-12-12T19:35:47.855Z,0.30
2022-12-12T19:38:39.149Z,0.30
2022-12-12T19:41:34.476Z,0.20
2022-12-12T19:44:26.809Z,0.20
2022-12-12T19:47:19.622Z,0.30
2022-12-12T19:50:09.890Z,0.40
2022-12-12T19:53:04.658Z,0.40
2022-12-12T19:55:55.280Z,0.40
2022-12-12T19:58:46.427Z,0.40
2022-12-12T20:01:39.518Z,0.40
2022-12-12T20:04:30.635Z,0.40
2022-12-12T20:07:20.791Z,0.50
2022-12-12T20:10:12.225Z,0.60
2022-12-12T20:13:03.050Z,0.60
2022-12-12T20:15:53.935Z,0.60
2022-12-12T20:18:48.142Z,0.60
2022-12-12T20:22:00.460Z,0.70
2022-12-12T20:24:51.943Z,0.70
2022-12-12T20:27:42.927Z,0.70
2022-12-12T20:30:33.823Z,0.80
2022-12-12T20:33:24.859Z,0.80
2022-12-12T20:36:18.954Z,0.80
2022-12-12T20:39:11.326Z,0.80
2022-12-12T20:42:02.537Z,0.80
2022-12-12T20:44:53.615Z,0.80
2022-12-12T20:47:43.982Z,0.80
2022-12-12T20:50:37.191Z,0.80
2022-12-12T20:53:36.119Z,0.70
2022-12-12T20:56:27.471Z,0.70
2022-12-12T20:59:17.856Z,0.70
2022-12-12T21:02:08.136Z,0.70
2022-12-12T21:04:59.495Z,0.80
2022-12-12T21:07:48.975Z,0.80
2022-12-12T21:10:40.767Z,0.70
2022-12-12T21:13:31.377Z,0.80
2022-12-12T21:16:22.957Z,0.80
2022-12-12T21:19:16.042Z,0.80
2022-12-12T21:22:08.547Z,0.80
2022-12-12T21:24:58.381Z,0.90
2022-12-12T21:27:49.498Z,0.90
2022-12-12T21:30:43.214Z,0.90
2022-12-12T21:33:38.201Z,0.90
2022-12-12T21:36:29.402Z,0.90
2022-12-12T21:39:19.121Z,0.90
2022-12-12T21:42:08.504Z,1.00
2022-12-12T21:44:59.300Z,0.90
2022-12-12T21:47:48.557Z,0.90
2022-12-12T21:50:40.028Z,0.90
2022-12-12T21:53:39.223Z,0.90
2022-12-12T21:56:28.523Z,0.90
2022-12-12T21:59:18.151Z,0.90
2022-12-12T22:02:09.012Z,0.90
2022-12-12T22:04:58.413Z,1.00
2022-12-12T22:07:47.779Z,1.00
2022-12-12T22:10:39.190Z,0.90
2022-12-12T22:13:28.474Z,0.90
2022-12-12T22:16:20.177Z,0.90
2022-12-12T22:19:14.643Z,1.00
2022-12-12T22:22:04.014Z,1.00
2022-12-12T22:24:54.269Z,1.00
2022-12-12T22:27:43.663Z,0.90
2022-12-12T22:30:33.646Z,0.90
2022-12-12T22:33:22.954Z,0.90
2022-12-12T22:36:15.136Z,0.80
2022-12-12T22:39:05.486Z,0.90
2022-12-12T22:41:55.314Z,0.90
2022-12-12T22:44:45.027Z,0.90
2022-12-12T22:47:35.188Z,0.90
2022-12-12T22:50:24.496Z,0.90
2022-12-12T22:53:15.907Z,0.90
2022-12-12T22:56:05.368Z,0.90
2022-12-12T22:58:54.630Z,0.90
2022-12-12T23:01:44.363Z,0.80
2022-12-12T23:04:33.703Z,0.90
2022-12-12T23:07:23.205Z,0.90
2022-12-12T23:10:14.433Z,0.90
2022-12-12T23:13:04.493Z,0.90
2022-12-12T23:15:53.814Z,0.90
2022-12-12T23:18:43.586Z,0.90
2022-12-12T23:21:32.973Z,0.80
2022-12-12T23:24:22.316Z,0.80
2022-12-12T23:27:13.416Z,0.80
2022-12-12T23:30:02.745Z,0.80
2022-12-12T23:32:52.256Z,0.80
2022-12-12T23:35:48.477Z,0.80
2022-12-12T23:38:38.144Z,0.70
2022-12-12T23:41:28.584Z,0.70
2022-12-12T23:44:21.606Z,0.70
2022-12-12T23:47:10.998Z,0.60
2022-12-12T23:50:00.281Z,0.50
2022-12-12T23:52:50.317Z,0.50
2022-12-12T23:55:39.641Z,0.50
2022-12-12T23:58:29.236Z,0.40
